Weather at Erenköy Helipad

Public forecast

Using degrees Celsius for public forecast. Weather courtesy of forecast.io.

Closest aviation weather report (METAR) to Erenköy Helipad

Closest report is Paphos International Airport, 28.9 nm (53.5 km) SSW.

2024/07/24 06:30 (retrieved 13 minutes ago)

LCPH 240630Z 25005KT 230V320 CAVOK 31/23 Q1002 NOSIG

Closest aviation forecast (TAF) to Erenköy Helipad

Closest forecast is Paphos International Airport, 28.9 nm (53.5 km) SSW.

2024/07/24 06:33 (retrieved 10 minutes ago)

TAF LCPH 240530Z 2406/2506 02007KT 9999 FEW015 BECMG 2407/2411 27015KT BECMG 2416/2420 35007KT PROB30 2417/2506 BKN012